Data for 11/28/2016

Time Sea-Level Adjusted Pressure Absolute Pressure Temperature Relative Humidity Dew Point   
(mb) (inHg) (mb) (inHg) (C) (F) (%) (C) (F)
00:05 1001 29.56 831 24.54 0.8 33.4 51 -8.1 17.4
00:10 1001 29.56 831 24.54 0.8 33.4 52 -8 17.6
00:15 1001 29.56 830 24.51 0.8 33.4 52 -7.9 17.8
00:20 1001 29.56 830 24.51 0.7 33.2 56 -7.2 19
00:25 1001 29.56 830 24.51 0.5 32.8 57 -7.1 19.2
00:30 1001 29.56 830 24.51 0.4 32.7 56 -7.3 18.8
00:35 1001 29.56 830 24.51 0.4 32.7 56 -7.5 18.5
00:40 1001 29.56 830 24.51 0.4 32.7 56 -7.3 18.8
00:45 1001 29.56 830 24.51 0.3 32.5 56 -7.4 18.6
00:50 1001 29.56 830 24.51 0.3 32.6 55 -7.8 18
00:55 1001 29.56 830 24.51 0.5 32.8 54 -7.8 18
01:00 1001 29.56 830 24.51 0.5 33 56 -7.3 18.9
01:05 1001 29.56 830 24.51 0.4 32.7 56 -7.4 18.8
01:10 1001 29.56 830 24.51 0.5 32.9 55 -7.4 18.6
01:15 1001 29.56 830 24.51 0.6 33 57 -7.1 19.3
01:20 1001 29.56 830 24.51 0.6 33.1 55 -7.3 18.8
01:25 1001 29.56 830 24.51 0.8 33.5 55 -7.2 19.1
01:30 1001 29.56 830 24.51 1 33.7 55 -7 19.4
01:35 1001 29.56 830 24.51 1 33.9 56 -6.7 20
01:40 1001 29.56 830 24.51 0.9 33.6 61 -5.9 21.4
01:45 1001 29.56 830 24.51 0.7 33.2 62 -5.8 21.6
01:50 1000 29.53 830 24.51 0.7 33.2 61 -6.1 21
01:55 1000 29.53 830 24.51 0.8 33.4 59 -6.4 20.5
02:00 1000 29.53 830 24.51 0.8 33.5 58 -6.5 20.2
02:05 1000 29.53 830 24.51 0.9 33.6 58 -6.5 20.3
02:10 1000 29.53 830 24.51 0.9 33.6 58 -6.5 20.2
02:15 1000 29.53 830 24.51 0.9 33.7 59 -6.1 20.9
02:20 1000 29.53 830 24.51 0.9 33.5 60 -6 21.2
02:25 1000 29.53 830 24.51 0.8 33.4 60 -6.1 21
02:30 1000 29.53 830 24.51 0.7 33.2 61 -6.1 21.1
02:35 1000 29.53 830 24.51 0.6 33 59 -6.6 20.2
02:40 1001 29.56 830 24.51 0.6 33.2 56 -7.1 19.2
02:45 1001 29.56 830 24.51 0.7 33.2 55 -7.3 18.9
02:50 1001 29.56 830 24.51 0.6 33 57 -7 19.4
02:55 1001 29.56 830 24.51 0.4 32.8 60 -6.4 20.5
03:00 1001 29.56 830 24.51 0.2 32.4 64 -5.7 21.7
03:05 1000 29.53 830 24.51 -0.1 31.9 68 -5.3 22.5
03:10 1000 29.53 830 24.51 -0.2 31.6 67 -5.6 22
03:15 1000 29.53 830 24.51 -0.2 31.6 67 -5.6 21.9
03:20 1000 29.53 830 24.51 -0.1 31.8 66 -5.8 21.6
03:25 1000 29.53 830 24.51 -0.1 31.8 66 -5.8 21.6
03:30 1000 29.53 830 24.51 -0.3 31.4 68 -5.6 21.9
03:35 1000 29.53 829 24.48 -0.4 31.2 69 -5.5 22.1
03:40 1000 29.53 829 24.48 -0.4 31.2 66 -6 21.2
03:45 1000 29.53 829 24.48 -0.5 31.1 67 -6 21.3
03:50 1000 29.53 829 24.48 -0.6 30.9 67 -5.9 21.4
03:55 1000 29.53 829 24.48 -0.6 30.9 68 -5.8 21.5
04:00 1000 29.53 829 24.48 -0.7 30.8 68 -5.8 21.5
04:05 1000 29.53 829 24.48 -0.6 30.8 68 -5.8 21.6
04:10 1000 29.53 829 24.48 -0.7 30.8 68 -5.8 21.6
04:15 1000 29.53 829 24.48 -0.7 30.8 69 -5.7 21.7
04:20 1000 29.53 829 24.48 -0.7 30.8 69 -5.7 21.7
04:25 1000 29.53 829 24.48 -0.6 30.9 69 -5.6 22
04:30 1000 29.53 829 24.48 -0.7 30.8 71 -5.4 22.3
04:35 1000 29.53 829 24.48 -0.8 30.6 71 -5.4 22.3
04:40 1000 29.53 829 24.48 -0.8 30.5 72 -5.2 22.6
04:45 1000 29.53 829 24.48 -0.9 30.4 73 -5.1 22.8
04:50 1000 29.53 830 24.51 -0.8 30.5 73 -5 23
04:55 1000 29.53 830 24.51 -0.7 30.7 74 -4.8 23.4
05:00 1001 29.56 830 24.51 -0.9 30.3 81 -3.8 25.1
05:05 1001 29.56 830 24.51 -1.4 29.5 85 -3.6 25.6
05:10 1001 29.56 830 24.51 -1.6 29.1 88 -3.4 25.9
05:15 1001 29.56 830 24.51 -1.8 28.8 90 -3.3 26.1
05:20 1001 29.56 830 24.51 -1.9 28.5 90 -3.3 26
05:25 1001 29.56 830 24.51 -2 28.4 91 -3.3 26.1
05:30 1001 29.56 830 24.51 -2 28.3 91 -3.3 26
05:35 1001 29.56 830 24.51 -2.1 28.2 91 -3.4 25.9
05:40 1001 29.56 830 24.51 -2.2 28.1 91 -3.4 25.8
05:45 1001 29.56 830 24.51 -2.2 28 91 -3.5 25.6
05:50 1001 29.56 830 24.51 -2.3 27.8 91 -3.6 25.5
05:55 1001 29.56 830 24.51 -2.4 27.8 91 -3.7 25.4
06:00 1001 29.56 830 24.51 -2.4 27.7 91 -3.7 25.4
06:05 1001 29.56 830 24.51 -2.4 27.7 91 -3.7 25.4
06:10 1001 29.56 830 24.51 -2.4 27.7 91 -3.6 25.4
06:15 1001 29.56 830 24.51 -2.4 27.7 91 -3.6 25.4
06:20 1001 29.56 830 24.51 -2.3 27.8 91 -3.6 25.5
06:25 1001 29.56 830 24.51 -2.3 27.9 91 -3.6 25.5
06:30 1001 29.56 830 24.51 -2.3 27.9 91 -3.6 25.6
06:35 1001 29.56 830 24.51 -2.3 27.9 91 -3.5 25.6
06:40 1001 29.56 830 24.51 -2.2 28 91 -3.5 25.6
06:45 1001 29.56 830 24.51 -2.3 27.9 91 -3.6 25.6
06:50 1001 29.56 830 24.51 -2.2 28 91 -3.6 25.6
06:55 1001 29.56 830 24.51 -2.3 27.9 91 -3.6 25.5
07:00 1001 29.56 830 24.51 -2.3 27.9 91 -3.6 25.5
07:05 1001 29.56 830 24.51 -2.2 28 91 -3.6 25.6
07:10 1001 29.56 830 24.51 -2.2 28 91 -3.5 25.6
07:15 1001 29.56 830 24.51 -2.2 28 90 -3.6 25.5
07:20 1001 29.56 830 24.51 -2.2 28 91 -3.6 25.6
07:25 1001 29.56 830 24.51 -2.2 28 90 -3.6 25.5
07:30 1001 29.56 830 24.51 -2.3 27.9 91 -3.6 25.5
07:35 1001 29.56 830 24.51 -2.2 28 91 -3.6 25.6
07:40 1001 29.56 830 24.51 -2.3 27.9 91 -3.6 25.5
07:45 1001 29.56 830 24.51 -2.2 28 91 -3.5 25.6
07:50 1001 29.56 830 24.51 -2.2 28.1 91 -3.5 25.7
07:55 1001 29.56 830 24.51 -2.2 28.1 91 -3.5 25.7
08:00 1001 29.56 831 24.54 -2.1 28.2 91 -3.4 25.8
08:05 1001 29.56 831 24.54 -2.1 28.3 91 -3.4 25.9
08:10 1001 29.56 831 24.54 -2 28.3 91 -3.4 25.9
08:15 1002 29.59 831 24.54 -2 28.4 90 -3.4 25.9
08:20 1002 29.59 831 24.54 -2 28.4 90 -3.4 25.9
08:25 1002 29.59 831 24.54 -2 28.5 90 -3.4 25.8
08:30 1002 29.59 831 24.54 -2 28.4 90 -3.5 25.7
08:35 1002 29.59 831 24.54 -2 28.5 90 -3.4 25.8
08:40 1002 29.59 831 24.54 -1.9 28.5 90 -3.4 25.8
08:45 1002 29.59 831 24.54 -1.8 28.7 89 -3.4 25.8
08:50 1002 29.59 831 24.54 -1.8 28.7 89 -3.4 25.8
08:55 1002 29.59 831 24.54 -2 28.5 90 -3.4 25.8
09:00 1002 29.59 831 24.54 -1.8 28.7 89 -3.3 26
09:05 1002 29.59 831 24.54 -1.8 28.8 89 -3.3 26.1
09:10 1002 29.59 831 24.54 -1.7 28.9 89 -3.3 26.1
09:15 1002 29.59 831 24.54 -1.7 28.9 89 -3.3 26
09:20 1002 29.59 831 24.54 -1.7 29 88 -3.4 25.9
09:25 1002 29.59 831 24.54 -1.4 29.4 86 -3.5 25.7
09:30 1002 29.59 831 24.54 -1.3 29.6 85 -3.5 25.7
09:35 1002 29.59 831 24.54 -1.3 29.7 85 -3.5 25.8
09:40 1002 29.59 831 24.54 -1.2 29.9 85 -3.4 25.8
09:45 1002 29.59 831 24.54 -1.1 30 84 -3.5 25.6
09:50 1002 29.59 831 24.54 -1.1 30 84 -3.6 25.6
09:55 1002 29.59 831 24.54 -1 30.1 82 -3.7 25.4
10:00 1002 29.59 832 24.57 -0.9 30.4 82 -3.6 25.6
10:05 1002 29.59 832 24.57 -0.6 31 81 -3.5 25.7
10:10 1003 29.62 832 24.57 -0.3 31.4 80 -3.4 25.9
10:15 1003 29.62 832 24.57 -0.1 31.9 79 -3.3 26.1
10:20 1003 29.62 832 24.57 0 32.1 78 -3.4 25.9
10:25 1003 29.62 832 24.57 0.1 32.3 78 -3.3 26.1
10:30 1003 29.62 832 24.57 0.4 32.7 77 -3.3 26.1
10:35 1003 29.62 832 24.57 0.4 32.7 77 -3.2 26.3
10:40 1003 29.62 832 24.57 0.3 32.5 78 -3.2 26.3
10:45 1003 29.62 832 24.57 0.3 32.5 78 -3.2 26.3
10:50 1003 29.62 832 24.57 0.1 32.2 77 -3.4 25.8
10:55 1003 29.62 832 24.57 -0.1 31.8 78 -3.5 25.6
11:00 1003 29.62 832 24.57 -0.2 31.7 78 -3.5 25.7
11:05 1003 29.62 832 24.57 -0.3 31.5 79 -3.5 25.8
11:10 1003 29.62 832 24.57 -0.4 31.3 79 -3.5 25.7
11:15 1003 29.62 832 24.57 -0.2 31.6 78 -3.6 25.6
11:20 1003 29.62 832 24.57 -0 32 78 -3.5 25.7
11:25 1003 29.62 832 24.57 0.1 32.1 78 -3.4 25.9
11:30 1003 29.62 832 24.57 0.2 32.4 76 -3.4 25.8
11:35 1003 29.62 832 24.57 0.5 32.9 74 -3.5 25.7
11:40 1003 29.62 832 24.57 0.6 33 76 -3.2 26.3
11:45 1003 29.62 832 24.57 0.6 33 76 -3.1 26.4
11:50 1003 29.62 832 24.57 0.7 33.2 74 -3.4 25.8
11:55 1003 29.62 832 24.57 0.6 33.2 73 -3.6 25.4
12:00 1003 29.62 832 24.57 0.8 33.4 72 -3.7 25.4
12:05 1003 29.62 832 24.57 1.1 33.9 70 -3.8 25.2
12:10 1003 29.62 832 24.57 1 33.8 68 -4.3 24.3
12:15 1003 29.62 832 24.57 0.9 33.5 66 -4.8 23.4
12:20 1003 29.62 832 24.57 0.8 33.5 66 -4.8 23.3
12:25 1003 29.62 832 24.57 0.8 33.5 66 -4.9 23.2
12:30 1003 29.62 832 24.57 0.9 33.6 64 -5.2 22.7
12:35 1003 29.62 832 24.57 0.9 33.6 61 -5.8 21.6
12:40 1003 29.62 832 24.57 0.8 33.5 61 -5.8 21.6
12:45 1003 29.62 832 24.57 0.7 33.3 62 -5.7 21.7
12:50 1003 29.62 832 24.57 0.5 32.9 69 -4.6 23.7
12:55 1003 29.62 832 24.57 -0.2 31.6 75 -4.1 24.5
13:00 1003 29.62 832 24.57 -0.6 30.9 80 -3.6 25.5
13:05 1003 29.62 832 24.57 -0.8 30.5 82 -3.5 25.6
13:10 1003 29.62 832 24.57 -1.2 29.8 84 -3.6 25.5
13:15 1003 29.62 833 24.6 -0.8 30.5 82 -3.5 25.8
13:20 1003 29.62 833 24.6 -0.5 31.1 81 -3.4 25.9
13:25 1003 29.62 833 24.6 -0.2 31.6 80 -3.3 26
13:30 1004 29.65 833 24.6 0.1 32.2 77 -3.4 25.8
13:35 1004 29.65 833 24.6 0.4 32.7 75 -3.5 25.7
13:40 1004 29.65 833 24.6 0.4 32.8 75 -3.6 25.6
13:45 1004 29.65 833 24.6 0.5 33 74 -3.7 25.4
13:50 1004 29.65 833 24.6 0.7 33.2 73 -3.7 25.4
13:55 1004 29.65 833 24.6 0.7 33.2 72 -3.8 25.2
14:00 1004 29.65 833 24.6 0.6 33.1 72 -3.8 25.2
14:05 1004 29.65 833 24.6 0.7 33.3 71 -3.9 24.9
14:10 1004 29.65 833 24.6 0.8 33.4 71 -3.9 25
14:15 1004 29.65 833 24.6 0.8 33.5 69 -4.2 24.5
14:20 1004 29.65 833 24.6 1 33.7 69 -4.1 24.5
14:25 1004 29.65 833 24.6 1 33.8 68 -4.3 24.3
14:30 1004 29.65 833 24.6 1 33.8 68 -4.2 24.4
14:35 1004 29.65 833 24.6 1.1 33.9 66 -4.5 23.8
14:40 1004 29.65 834 24.63 1.1 33.9 66 -4.5 23.9
14:45 1004 29.65 834 24.63 1.1 34 62 -5.3 22.5
14:50 1004 29.65 834 24.63 1.2 34.1 59 -6.1 21.1
14:55 1005 29.68 834 24.63 1.1 34 59 -6.1 21.1
15:00 1005 29.68 834 24.63 1.1 34 58 -6.2 20.8
15:05 1005 29.68 834 24.63 1.2 34.1 58 -6.1 21
15:10 1005 29.68 834 24.63 1 33.9 58 -6.4 20.5
15:15 1005 29.68 834 24.63 1.1 33.9 58 -6.2 20.8
15:20 1005 29.68 834 24.63 1 33.8 59 -6.1 21.1
15:25 1005 29.68 834 24.63 0.9 33.6 60 -6.1 21.1
15:30 1005 29.68 834 24.63 0.8 33.4 60 -6.1 21
15:35 1005 29.68 834 24.63 0.7 33.3 61 -6 21.2
15:40 1005 29.68 834 24.63 0.7 33.3 61 -5.9 21.4
15:45 1005 29.68 834 24.63 0.7 33.3 61 -5.9 21.4
15:50 1005 29.68 834 24.63 0.7 33.3 61 -6 21.3
15:55 1005 29.68 835 24.66 0.7 33.2 60 -6.1 21
16:00 1005 29.68 835 24.66 0.6 33.1 60 -6.3 20.7
16:05 1006 29.71 835 24.66 0.5 32.9 70 -4.3 24.2
16:10 1006 29.71 835 24.66 -0.1 31.9 77 -3.6 25.4
16:15 1006 29.71 835 24.66 -0.4 31.2 78 -3.8 25.1
16:20 1006 29.71 835 24.66 -0.4 31.2 77 -3.9 24.9
16:25 1006 29.71 835 24.66 -0.4 31.4 76 -4.1 24.7
16:30 1006 29.71 835 24.66 -0.2 31.7 72 -4.6 23.6
16:35 1006 29.71 835 24.66 -0 32 69 -5 22.9
16:40 1006 29.71 835 24.66 0 32 69 -4.9 23.1
16:45 1006 29.71 835 24.66 -0.1 31.8 71 -4.7 23.6
16:50 1006 29.71 835 24.66 -0.2 31.7 71 -4.8 23.4
16:55 1006 29.71 835 24.66 -0.1 31.7 70 -4.9 23.2
17:00 1006 29.71 836 24.69 -0.2 31.7 71 -4.8 23.4
17:05 1006 29.71 836 24.69 -0.1 31.8 70 -5 23
17:10 1007 29.74 836 24.69 -0 31.9 67 -5.5 22.1
17:15 1007 29.74 836 24.69 -0.2 31.6 72 -4.7 23.6
17:20 1007 29.74 836 24.69 -0.8 30.6 80 -3.8 25.1
17:25 1007 29.74 836 24.69 -1.4 29.4 85 -3.6 25.5
17:30 1007 29.74 836 24.69 -1.8 28.8 88 -3.5 25.7
17:35 1007 29.74 836 24.69 -1.7 28.9 88 -3.5 25.8
17:40 1007 29.74 836 24.69 -1.7 29 87 -3.5 25.7
17:45 1007 29.74 836 24.69 -1.6 29 86 -3.6 25.5
17:50 1007 29.74 836 24.69 -1.6 29.2 86 -3.7 25.4
17:55 1007 29.74 836 24.69 -1.6 29.1 85 -3.7 25.3
18:00 1007 29.74 836 24.69 -1.6 29.2 85 -3.7 25.3
18:05 1007 29.74 837 24.72 -1.5 29.3 85 -3.7 25.3
18:10 1007 29.74 837 24.72 -1.5 29.3 85 -3.7 25.4
18:15 1007 29.74 837 24.72 -1.5 29.2 86 -3.6 25.5
18:20 1007 29.74 837 24.72 -1.6 29.2 85 -3.8 25.2
18:25 1008 29.77 837 24.72 -1.8 28.8 86 -3.8 25.1
18:30 1008 29.77 837 24.72 -1.8 28.8 86 -3.9 25.1
18:35 1008 29.77 837 24.72 -1.8 28.7 86 -4 24.9
18:40 1008 29.77 837 24.72 -1.9 28.6 85 -4 24.7
18:45 1008 29.77 837 24.72 -1.9 28.5 86 -4 24.8
18:50 1008 29.77 837 24.72 -2 28.4 86 -4.1 24.7
18:55 1008 29.77 837 24.72 -2.2 28.1 87 -4.1 24.6
19:00 1008 29.77 837 24.72 -2.2 28 87 -4.1 24.6
19:05 1008 29.77 837 24.72 -2.2 28 86 -4.2 24.4
19:10 1008 29.77 837 24.72 -2.2 28.1 86 -4.3 24.3
19:15 1008 29.77 837 24.72 -2.1 28.2 84 -4.5 23.9
19:20 1008 29.77 837 24.72 -2 28.4 83 -4.6 23.7
19:25 1008 29.77 837 24.72 -1.9 28.5 83 -4.5 23.9
19:30 1008 29.77 837 24.72 -1.9 28.6 82 -4.5 23.8
19:35 1008 29.77 837 24.72 -1.9 28.5 82 -4.7 23.6
19:40 1008 29.77 837 24.72 -1.9 28.6 81 -4.8 23.3
19:45 1008 29.77 837 24.72 -1.8 28.7 79 -4.9 23.1
19:50 1008 29.77 837 24.72 -1.8 28.8 78 -5.1 22.7
19:55 1008 29.77 837 24.72 -1.7 29 78 -5 22.9
20:00 1008 29.77 837 24.72 -1.7 29 78 -5 23
20:05 1008 29.77 838 24.75 -1.6 29.1 78 -4.9 23.2
20:10 1008 29.77 838 24.75 -1.5 29.3 76 -5.1 22.7
20:15 1008 29.77 838 24.75 -1.4 29.5 76 -5 22.9
20:20 1008 29.77 838 24.75 -1.3 29.6 76 -5 23
20:25 1009 29.8 838 24.75 -1.3 29.6 76 -5 23
20:30 1009 29.8 838 24.75 -1.3 29.6 77 -4.9 23.2
20:35 1009 29.8 838 24.75 -1.4 29.6 77 -4.9 23.1
20:40 1009 29.8 838 24.75 -1.4 29.6 77 -4.9 23.2
20:45 1009 29.8 838 24.75 -1.4 29.5 77 -4.9 23.3
20:50 1009 29.8 838 24.75 -1.5 29.4 78 -4.7 23.5
20:55 1009 29.8 838 24.75 -1.6 29.1 80 -4.6 23.6
21:00 1009 29.8 838 24.75 -1.7 28.9 81 -4.6 23.7
21:05 1009 29.8 838 24.75 -1.8 28.7 83 -4.4 24.1
21:10 1009 29.8 838 24.75 -2 28.5 85 -4.1 24.5
21:15 1009 29.8 838 24.75 -2.1 28.2 87 -4 24.7
21:20 1009 29.8 838 24.75 -2.2 28 88 -3.9 25
21:25 1009 29.8 839 24.78 -2.2 28 89 -3.8 25.1
21:30 1009 29.8 839 24.78 -2.3 27.9 90 -3.7 25.3
21:35 1009 29.8 839 24.78 -2.2 28 90 -3.7 25.4
21:40 1010 29.83 839 24.78 -2.2 28 90 -3.7 25.4
21:45 1010 29.83 839 24.78 -2.2 28 90 -3.7 25.4
21:50 1010 29.83 839 24.78 -2.3 27.9 90 -3.7 25.3
21:55 1010 29.83 839 24.78 -2.3 27.8 90 -3.7 25.3
22:00 1010 29.83 839 24.78 -2.3 27.8 91 -3.7 25.4
22:05 1010 29.83 839 24.78 -2.4 27.8 90 -3.7 25.3
22:10 1010 29.83 839 24.78 -2.3 27.8 90 -3.7 25.3
22:15 1010 29.83 839 24.78 -2.3 27.9 90 -3.7 25.4
22:20 1010 29.83 839 24.78 -2.3 27.9 90 -3.7 25.4
22:25 1010 29.83 839 24.78 -2.2 28 90 -3.6 25.5
22:30 1010 29.83 839 24.78 -2.2 28 90 -3.6 25.4
22:35 1010 29.83 839 24.78 -2.3 27.9 90 -3.7 25.3
22:40 1010 29.83 839 24.78 -2.4 27.8 90 -3.8 25.2
22:45 1010 29.83 839 24.78 -2.3 27.8 90 -3.8 25.2
22:50 1010 29.83 839 24.78 -2.3 27.8 90 -3.8 25.2
22:55 1010 29.83 839 24.78 -2.4 27.7 90 -3.9 25.1
23:00 1010 29.83 840 24.81 -2.4 27.7 89 -3.9 25
23:05 1010 29.83 840 24.81 -2.3 27.8 89 -3.9 25
23:10 1010 29.83 840 24.81 -2.3 27.8 89 -3.9 24.9
23:15 1011 29.85 840 24.81 -2.3 27.9 88 -4 24.8
23:20 1011 29.85 840 24.81 -2.2 28 87 -4 24.7
23:25 1011 29.85 840 24.81 -2.2 28 87 -4.1 24.6
23:30 1011 29.85 840 24.81 -2.2 28.1 86 -4.2 24.4
23:35 1011 29.85 840 24.81 -2.1 28.2 86 -4.2 24.5
23:40 1011 29.85 840 24.81 -2.1 28.2 85 -4.3 24.3
23:45 1011 29.85 840 24.81 -2.1 28.2 85 -4.3 24.3
23:50 1011 29.85 840 24.81 -2.2 28.1 86 -4.3 24.3
23:55 1011 29.85 840 24.81 -2.2 28.1 86 -4.3 24.3
24:00 1011 29.85 840 24.81 -2.1 28.1 85 -4.3 24.2